createdAt,value
2023-11-30T00:01:06.358Z,97266.50
2023-11-30T00:03:36.066Z,97271.32
2023-11-30T00:06:03.816Z,97269.73
2023-11-30T00:08:31.357Z,97278.53
2023-11-30T00:10:59.360Z,97278.53
2023-11-30T00:13:27.553Z,97288.13
2023-11-30T00:15:55.213Z,97292.12
2023-11-30T00:18:22.566Z,97284.41
2023-11-30T00:20:50.151Z,97290.53
2023-11-30T00:23:17.632Z,97297.47
2023-11-30T00:25:45.307Z,97305.76
2023-11-30T00:28:12.946Z,97302.00
2023-11-30T00:30:41.416Z,97304.13
2023-11-30T00:33:09.146Z,97307.62
2023-11-30T00:35:36.808Z,97308.95
2023-11-30T00:38:04.416Z,97312.16
2023-11-30T00:40:32.648Z,97308.16
2023-11-30T00:43:00.930Z,97312.97
2023-11-30T00:45:28.699Z,97313.48
2023-11-30T00:47:56.583Z,97313.48
2023-11-30T00:50:24.035Z,97314.83
2023-11-30T00:52:51.448Z,97314.56
2023-11-30T00:55:19.103Z,97318.03
2023-11-30T00:57:47.061Z,97312.69
2023-11-30T01:00:15.429Z,97316.16
2023-11-30T01:02:43.036Z,97314.28
2023-11-30T01:05:10.618Z,97308.16
2023-11-30T01:07:38.396Z,97311.62
2023-11-30T01:10:07.946Z,97309.74
2023-11-30T01:12:35.708Z,97306.56
2023-11-30T01:15:04.745Z,97317.23
2023-11-30T01:17:32.301Z,97311.10
2023-11-30T01:19:59.852Z,97309.74
2023-11-30T01:22:27.526Z,97310.82
2023-11-30T01:24:55.044Z,97320.16
2023-11-30T01:27:24.000Z,97319.64
2023-11-30T01:29:51.669Z,97326.03
2023-11-30T01:32:19.394Z,97328.98
2023-11-30T01:34:48.599Z,97322.02
2023-11-30T01:37:21.476Z,97322.31
2023-11-30T01:39:54.405Z,97324.44
2023-11-30T01:42:31.902Z,97325.77
2023-11-30T01:45:06.981Z,97323.92
2023-11-30T01:47:46.100Z,97325.25
2023-11-30T01:50:24.024Z,97320.17
2023-11-30T01:52:55.653Z,97317.50
2023-11-30T01:55:28.130Z,97313.52
2023-11-30T01:58:05.137Z,97317.52
2023-11-30T02:00:40.917Z,97314.84
2023-11-30T02:03:09.673Z,97322.56
2023-11-30T02:05:38.456Z,97329.52
2023-11-30T02:08:06.250Z,97324.45
2023-11-30T02:10:33.769Z,97331.91
2023-11-30T02:13:01.393Z,97331.38
2023-11-30T02:15:29.542Z,97329.52
2023-11-30T02:17:57.069Z,97333.78
2023-11-30T02:20:24.604Z,97331.39
2023-11-30T02:22:52.304Z,97335.66
2023-11-30T02:25:19.755Z,97332.70
2023-11-30T02:27:47.569Z,97343.94
2023-11-30T02:30:16.401Z,97341.79
2023-11-30T02:32:43.936Z,97343.39
2023-11-30T02:35:11.465Z,97339.93
2023-11-30T02:37:38.638Z,97340.98
2023-11-30T02:40:08.014Z,97342.59
2023-11-30T02:42:36.089Z,97344.45
2023-11-30T02:45:04.408Z,97338.59
2023-11-30T02:47:31.799Z,97336.70
2023-11-30T02:49:59.263Z,97330.84
2023-11-30T02:52:26.881Z,97344.71
2023-11-30T02:54:54.162Z,97340.17
2023-11-30T02:57:21.773Z,97340.47
2023-11-30T02:59:49.383Z,97338.06
2023-11-30T03:02:16.736Z,97335.91
2023-11-30T03:04:45.720Z,97342.87
2023-11-30T03:07:13.192Z,97347.91
2023-11-30T03:09:40.852Z,97347.66
2023-11-30T03:12:08.618Z,97344.73
2023-11-30T03:14:36.306Z,97345.27
2023-11-30T03:17:04.049Z,97344.47
2023-11-30T03:19:31.587Z,97355.13
2023-11-30T03:21:59.287Z,97344.17
2023-11-30T03:24:27.915Z,97351.40
2023-11-30T03:26:55.374Z,97357.79
2023-11-30T03:29:23.047Z,97359.64
2023-11-30T03:31:51.235Z,97356.45
2023-11-30T03:34:18.575Z,97350.30
2023-11-30T03:36:46.223Z,97355.38
2023-11-30T03:39:14.014Z,97357.48
2023-11-30T03:41:41.302Z,97367.37
2023-11-30T03:44:08.897Z,97372.41
2023-11-30T03:46:37.040Z,97372.15
2023-11-30T03:49:04.573Z,97370.30
2023-11-30T03:51:33.496Z,97374.81
2023-11-30T03:54:01.419Z,97365.73
2023-11-30T03:56:33.756Z,97363.86
2023-11-30T03:59:01.093Z,97374.79
2023-11-30T04:01:28.862Z,97376.40
2023-11-30T04:03:56.261Z,97371.84
2023-11-30T04:06:24.467Z,97375.83
2023-11-30T04:08:53.413Z,97376.08
2023-11-30T04:11:21.300Z,97375.80
2023-11-30T04:13:49.409Z,97380.06
2023-11-30T04:16:18.331Z,97381.13
2023-11-30T04:18:46.028Z,97376.60
2023-11-30T04:21:14.614Z,97375.78
2023-11-30T04:23:42.416Z,97370.17
2023-11-30T04:26:10.607Z,97374.17
2023-11-30T04:28:38.334Z,97377.88
2023-11-30T04:31:06.456Z,97379.48
2023-11-30T04:33:34.835Z,97378.69
2023-11-30T04:36:03.444Z,97390.94
2023-11-30T04:38:31.280Z,97389.61
2023-11-30T04:40:59.955Z,97390.95
2023-11-30T04:43:27.405Z,97383.99
2023-11-30T04:45:54.862Z,97387.73
2023-11-30T04:48:22.279Z,97394.92
2023-11-30T04:50:50.023Z,97394.36
2023-11-30T04:53:17.936Z,97394.91
2023-11-30T04:55:46.500Z,97390.35
2023-11-30T04:58:14.716Z,97396.77
2023-11-30T05:00:42.613Z,97399.15
2023-11-30T05:03:10.106Z,97401.52
2023-11-30T05:05:37.922Z,97402.85
2023-11-30T05:08:05.357Z,97406.58
2023-11-30T05:10:32.804Z,97409.25
2023-11-30T05:13:00.199Z,97410.30
2023-11-30T05:15:27.882Z,97409.50
2023-11-30T05:17:55.187Z,97405.77
2023-11-30T05:20:22.682Z,97407.63
2023-11-30T05:22:51.029Z,97405.50
2023-11-30T05:25:18.847Z,97403.11
2023-11-30T05:27:46.321Z,97404.70
2023-11-30T05:30:14.360Z,97398.30
2023-11-30T05:32:42.168Z,97402.83
2023-11-30T05:35:09.775Z,97400.17
2023-11-30T05:37:37.391Z,97399.09
2023-11-30T05:40:08.238Z,97402.55
2023-11-30T05:42:36.154Z,97402.02
2023-11-30T05:45:05.783Z,97405.98
2023-11-30T05:47:33.236Z,97404.39
2023-11-30T05:50:00.835Z,97414.22
2023-11-30T05:52:28.292Z,97417.39
2023-11-30T05:54:57.711Z,97415.53
2023-11-30T05:57:24.917Z,97423.25
2023-11-30T05:59:52.932Z,97424.84
2023-11-30T06:02:22.333Z,97425.11
2023-11-30T06:04:52.136Z,97428.03
2023-11-30T06:07:20.878Z,97433.13
2023-11-30T06:09:48.442Z,97439.00
2023-11-30T06:12:16.240Z,97429.16
2023-11-30T06:14:44.285Z,97436.37
2023-11-30T06:17:12.835Z,97440.09
2023-11-30T06:19:41.294Z,97441.95
2023-11-30T06:22:09.149Z,97440.63
2023-11-30T06:24:36.952Z,97442.52
2023-11-30T06:27:07.694Z,97440.94
2023-11-30T06:29:35.205Z,97428.69
2023-11-30T06:32:03.688Z,97421.23
2023-11-30T06:34:33.076Z,97418.58
2023-11-30T06:37:00.792Z,97417.81
2023-11-30T06:39:29.423Z,97408.23
2023-11-30T06:41:57.121Z,97401.33
2023-11-30T06:44:24.687Z,97405.60
2023-11-30T06:46:52.067Z,97410.42
2023-11-30T06:49:19.356Z,97417.36
2023-11-30T06:51:46.711Z,97419.75
2023-11-30T06:54:14.361Z,97422.17
2023-11-30T06:56:42.150Z,97418.98
2023-11-30T06:59:09.711Z,97418.21
2023-11-30T07:01:37.501Z,97425.40
2023-11-30T07:04:06.210Z,97427.81
2023-11-30T07:06:33.749Z,97421.70
2023-11-30T07:09:01.217Z,97416.13
2023-11-30T07:11:28.797Z,97420.91
2023-11-30T07:13:56.248Z,97415.58
2023-11-30T07:16:25.714Z,97416.95
2023-11-30T07:18:53.355Z,97414.02
2023-11-30T07:21:20.875Z,97412.14
2023-11-30T07:23:48.255Z,97406.83
2023-11-30T07:26:16.190Z,97410.29
2023-11-30T07:28:43.506Z,97414.55
2023-11-30T07:31:18.941Z,97418.05
2023-11-30T07:33:47.923Z,97424.44
2023-11-30T07:36:15.871Z,97424.72
2023-11-30T07:38:43.367Z,97421.77
2023-11-30T07:41:12.163Z,97423.91
2023-11-30T07:43:39.627Z,97410.59
2023-11-30T07:46:08.290Z,97412.99
2023-11-30T07:48:35.801Z,97404.19
2023-11-30T07:51:03.493Z,97410.86
2023-11-30T07:53:30.990Z,97407.13
2023-11-30T07:55:58.609Z,97398.07
2023-11-30T07:58:26.376Z,97403.16
2023-11-30T08:00:53.886Z,97401.30
2023-11-30T08:03:21.251Z,97391.41
2023-11-30T08:05:49.596Z,97381.02
2023-11-30T08:08:18.199Z,97383.39
2023-11-30T08:10:45.853Z,97382.33
2023-11-30T08:13:14.152Z,97379.66
2023-11-30T08:15:42.010Z,97378.30
2023-11-30T08:18:10.945Z,97368.95
2023-11-30T08:20:38.483Z,97362.80
2023-11-30T08:23:06.000Z,97374.26
2023-11-30T08:25:33.735Z,97381.46
2023-11-30T08:28:01.461Z,97375.02
2023-11-30T08:30:30.006Z,97375.52
2023-11-30T08:32:59.399Z,97378.45
2023-11-30T08:35:28.114Z,97384.31
2023-11-30T08:37:55.939Z,97388.55
2023-11-30T08:40:23.772Z,97383.74
2023-11-30T08:42:51.271Z,97388.01
2023-11-30T08:45:18.799Z,97378.08
2023-11-30T08:47:46.268Z,97368.70
2023-11-30T08:50:15.227Z,97369.75
2023-11-30T08:52:42.614Z,97364.08
2023-11-30T08:55:11.887Z,97360.03
2023-11-30T08:57:42.014Z,97351.42
2023-11-30T09:00:14.330Z,97354.84
2023-11-30T09:02:42.594Z,97347.27
2023-11-30T09:05:12.745Z,97338.90
2023-11-30T09:07:40.143Z,97342.30
2023-11-30T09:10:08.664Z,97343.05
2023-11-30T09:12:36.296Z,97342.73
2023-11-30T09:15:07.445Z,97344.86
2023-11-30T09:17:36.245Z,97338.08
2023-11-30T09:20:06.759Z,97333.75
2023-11-30T09:22:36.382Z,97333.20
2023-11-30T09:25:04.739Z,97326.24
2023-11-30T09:27:32.909Z,97326.24
2023-11-30T09:30:01.874Z,97318.72
2023-11-30T09:32:29.314Z,97322.48
2023-11-30T09:34:56.964Z,97314.68
2023-11-30T09:37:24.587Z,97304.78
2023-11-30T09:39:52.246Z,97295.95
2023-11-30T09:42:20.173Z,97288.71
2023-11-30T09:44:47.818Z,97284.13
2023-11-30T09:47:16.535Z,97284.38
2023-11-30T09:49:44.220Z,97284.63
2023-11-30T09:52:11.576Z,97282.48
2023-11-30T09:54:39.550Z,97278.45
2023-11-30T09:57:07.075Z,97283.77
2023-11-30T09:59:34.679Z,97266.91
2023-11-30T10:02:05.496Z,97254.93
2023-11-30T10:04:32.289Z,97253.91
2023-11-30T10:06:59.848Z,97247.52
2023-11-30T10:09:27.857Z,97238.20
2023-11-30T10:11:55.804Z,97237.61
2023-11-30T10:14:23.352Z,97242.63
2023-11-30T10:16:50.846Z,97247.66
2023-11-30T10:19:18.684Z,97237.14
2023-11-30T10:21:46.363Z,97229.63
2023-11-30T10:24:13.943Z,97218.15
2023-11-30T10:26:44.054Z,97207.69
2023-11-30T10:29:15.393Z,97205.28
2023-11-30T10:31:44.305Z,97205.22
2023-11-30T10:34:14.701Z,97193.09
2023-11-30T10:36:44.468Z,97178.09
2023-11-30T10:39:21.568Z,97172.67
2023-11-30T10:41:55.558Z,97167.79
2023-11-30T10:44:30.241Z,97158.39
2023-11-30T10:47:00.437Z,97154.38
2023-11-30T10:49:29.976Z,97150.92
2023-11-30T10:52:03.507Z,97141.55
2023-11-30T10:54:42.259Z,97143.44
2023-11-30T10:57:13.717Z,97143.53
2023-11-30T10:59:46.460Z,97143.06
2023-11-30T11:02:15.024Z,97148.72
2023-11-30T11:04:43.748Z,97141.48
2023-11-30T11:07:14.101Z,97147.92
2023-11-30T11:09:45.264Z,97136.67
2023-11-30T11:12:26.710Z,97144.70
2023-11-30T11:15:14.167Z,97142.84
2023-11-30T11:17:52.563Z,97144.50
2023-11-30T11:20:27.213Z,97135.97
2023-11-30T11:23:09.174Z,97138.33
2023-11-30T11:25:46.750Z,97127.30
2023-11-30T11:28:17.380Z,97122.67
2023-11-30T11:30:51.388Z,97115.16
2023-11-30T11:33:23.097Z,97104.42
2023-11-30T11:35:51.286Z,97103.03
2023-11-30T11:38:19.687Z,97091.50
2023-11-30T11:40:49.110Z,97104.04
2023-11-30T11:43:17.071Z,97093.05
2023-11-30T11:45:45.228Z,97088.49
2023-11-30T11:48:13.508Z,97085.02
2023-11-30T11:50:41.550Z,97070.80
2023-11-30T11:53:09.366Z,97057.41
2023-11-30T11:55:38.863Z,97035.98
2023-11-30T11:58:06.638Z,97031.16
2023-11-30T12:00:34.397Z,97022.58
2023-11-30T12:03:07.320Z,97022.58
2023-11-30T12:05:35.190Z,97019.91
2023-11-30T12:08:03.756Z,97026.02
2023-11-30T12:10:43.840Z,97031.90
2023-11-30T12:13:14.654Z,97047.64
2023-11-30T12:15:43.057Z,97059.37
2023-11-30T12:18:14.062Z,97057.97
2023-11-30T12:20:42.664Z,97058.19
2023-11-30T12:23:11.968Z,97063.20
2023-11-30T12:25:39.948Z,97072.78
2023-11-30T12:28:08.092Z,97072.17
2023-11-30T12:30:37.004Z,97058.19
2023-11-30T12:33:04.852Z,97062.11
2023-11-30T12:35:32.620Z,97061.44
2023-11-30T12:38:02.609Z,97053.02
2023-11-30T12:40:30.645Z,97058.84
2023-11-30T12:42:58.498Z,97054.23
2023-11-30T12:45:27.896Z,97042.99
2023-11-30T12:47:56.420Z,97030.92
2023-11-30T12:50:24.234Z,97014.59
2023-11-30T12:52:52.460Z,97017.00
2023-11-30T12:55:20.462Z,97007.30
2023-11-30T12:57:48.699Z,97002.98
2023-11-30T13:00:17.784Z,97002.70
2023-11-30T13:02:47.659Z,97002.19
2023-11-30T13:05:16.663Z,96993.66
2023-11-30T13:07:44.587Z,96987.30
2023-11-30T13:10:12.674Z,96978.25
2023-11-30T13:12:41.550Z,96975.16
2023-11-30T13:15:12.562Z,96979.22
2023-11-30T13:17:40.904Z,96985.98
2023-11-30T13:20:12.488Z,96978.77
2023-11-30T13:22:47.376Z,96977.19
2023-11-30T13:25:15.581Z,96964.03
2023-11-30T13:27:48.418Z,96962.69
2023-11-30T13:30:18.131Z,96972.07
2023-11-30T13:32:46.697Z,96980.17
2023-11-30T13:35:14.601Z,96973.27
2023-11-30T13:37:42.772Z,96968.73
2023-11-30T13:40:11.903Z,96965.02
2023-11-30T13:42:39.821Z,96970.93
2023-11-30T13:45:08.468Z,96961.03
2023-11-30T13:47:36.304Z,96963.27
2023-11-30T13:50:06.131Z,96969.17
2023-11-30T13:52:34.120Z,96960.89
2023-11-30T13:55:01.932Z,96965.97
2023-11-30T13:57:29.702Z,96963.05
2023-11-30T13:59:57.962Z,96957.20
2023-11-30T14:02:25.875Z,96956.94
2023-11-30T14:04:54.106Z,96955.66
2023-11-30T14:07:22.332Z,96946.31
2023-11-30T14:09:50.098Z,96936.45
2023-11-30T14:12:17.889Z,96929.23
2023-11-30T14:14:46.303Z,96933.50
2023-11-30T14:17:14.246Z,96934.32
2023-11-30T14:19:42.175Z,96930.82
2023-11-30T14:22:10.104Z,96923.88
2023-11-30T14:24:40.730Z,96923.94
2023-11-30T14:27:12.529Z,96927.96
2023-11-30T14:29:40.357Z,96920.20
2023-11-30T14:32:08.566Z,96915.73
2023-11-30T14:34:37.549Z,96923.80
2023-11-30T14:37:05.504Z,96919.05
2023-11-30T14:39:33.517Z,96914.86
2023-11-30T14:42:01.489Z,96921.07
2023-11-30T14:44:29.853Z,96920.06
2023-11-30T14:46:57.782Z,96915.29
2023-11-30T14:49:25.583Z,96913.70
2023-11-30T14:51:53.422Z,96915.32
2023-11-30T14:54:21.361Z,96912.09
2023-11-30T14:56:50.685Z,96910.75
2023-11-30T14:59:18.645Z,96899.01
2023-11-30T15:01:47.225Z,96895.23
2023-11-30T15:04:16.357Z,96889.09
2023-11-30T15:06:44.588Z,96894.17
2023-11-30T15:09:14.387Z,96882.16
2023-11-30T15:11:43.934Z,96878.47
2023-11-30T15:14:14.256Z,96873.94
2023-11-30T15:16:42.524Z,96872.33
2023-11-30T15:19:10.694Z,96872.12
2023-11-30T15:21:38.555Z,96873.79
2023-11-30T15:24:07.549Z,96871.20
2023-11-30T15:26:35.368Z,96870.69
2023-11-30T15:29:03.176Z,96869.59
2023-11-30T15:31:32.307Z,96863.17
2023-11-30T15:34:01.981Z,96862.66
2023-11-30T15:36:30.027Z,96865.58
2023-11-30T15:38:59.676Z,96864.23
2023-11-30T15:41:27.698Z,96857.30
2023-11-30T15:43:55.525Z,96848.27
2023-11-30T15:46:23.341Z,96845.90
2023-11-30T15:48:51.181Z,96842.70
2023-11-30T15:51:20.109Z,96844.90
2023-11-30T15:53:47.808Z,96839.82
2023-11-30T15:56:21.762Z,96835.56
2023-11-30T15:58:49.693Z,96829.97
2023-11-30T16:01:17.681Z,96833.13
2023-11-30T16:03:45.858Z,96832.85
2023-11-30T16:06:13.964Z,96825.86
2023-11-30T16:08:41.839Z,96822.36
2023-11-30T16:11:14.509Z,96823.70
2023-11-30T16:13:42.977Z,96818.04
2023-11-30T16:16:15.029Z,96823.09
2023-11-30T16:18:43.128Z,96822.05
2023-11-30T16:21:16.621Z,96821.81
2023-11-30T16:23:47.943Z,96833.06
2023-11-30T16:26:21.255Z,96820.23
2023-11-30T16:28:49.502Z,96817.83
2023-11-30T16:31:18.030Z,96807.98
2023-11-30T16:33:45.940Z,96803.45
2023-11-30T16:36:13.725Z,96800.22
2023-11-30T16:38:42.290Z,96797.33
2023-11-30T16:41:10.165Z,96799.28
2023-11-30T16:43:38.080Z,96788.37
2023-11-30T16:46:07.139Z,96788.37
2023-11-30T16:48:35.847Z,96782.16
2023-11-30T16:51:07.787Z,96783.23
2023-11-30T16:53:35.672Z,96777.27
2023-11-30T16:56:04.495Z,96772.42
2023-11-30T16:58:32.300Z,96770.23
2023-11-30T17:01:00.268Z,96768.63
2023-11-30T17:03:29.213Z,96768.07
2023-11-30T17:05:57.623Z,96769.44
2023-11-30T17:08:25.481Z,96761.69
2023-11-30T17:10:53.338Z,96761.14
2023-11-30T17:13:23.448Z,96760.28
2023-11-30T17:15:52.936Z,96750.92
2023-11-30T17:18:21.089Z,96752.50
2023-11-30T17:20:48.930Z,96748.75
2023-11-30T17:23:17.097Z,96747.97
2023-11-30T17:25:44.983Z,96751.91
2023-11-30T17:28:13.194Z,96746.56
2023-11-30T17:30:41.147Z,96749.23
2023-11-30T17:33:09.025Z,96744.98
2023-11-30T17:35:37.222Z,96736.95
2023-11-30T17:38:05.044Z,96737.44
2023-11-30T17:40:34.327Z,96743.64
2023-11-30T17:43:03.737Z,96734.27
2023-11-30T17:45:31.510Z,96735.61
2023-11-30T17:47:59.468Z,96737.78
2023-11-30T17:50:28.008Z,96731.91
2023-11-30T17:52:56.501Z,96721.72
2023-11-30T17:55:24.586Z,96718.80
2023-11-30T17:57:52.406Z,96724.73
2023-11-30T18:00:20.614Z,96726.59
2023-11-30T18:02:49.651Z,96723.67
2023-11-30T18:05:17.549Z,96719.11
2023-11-30T18:07:45.396Z,96721.78
2023-11-30T18:10:13.150Z,96713.79
2023-11-30T18:12:40.874Z,96710.63
2023-11-30T18:15:09.815Z,96715.71
2023-11-30T18:17:37.637Z,96720.89
2023-11-30T18:20:06.432Z,96723.36
2023-11-30T18:22:34.406Z,96718.55
2023-11-30T18:25:05.989Z,96721.75
2023-11-30T18:27:33.980Z,96723.36
2023-11-30T18:30:01.866Z,96703.53
2023-11-30T18:32:29.780Z,96710.22
2023-11-30T18:34:57.579Z,96700.06
2023-11-30T18:37:25.529Z,96692.52
2023-11-30T18:39:53.372Z,96695.50
2023-11-30T18:42:21.828Z,96700.61
2023-11-30T18:44:50.078Z,96693.92
2023-11-30T18:47:18.056Z,96687.48
2023-11-30T18:49:45.766Z,96688.47
2023-11-30T18:52:15.592Z,96686.89
2023-11-30T18:54:45.724Z,96692.48
2023-11-30T18:57:14.330Z,96684.70
2023-11-30T18:59:42.108Z,96679.41
2023-11-30T19:02:10.293Z,96676.27
2023-11-30T19:04:39.763Z,96682.71
2023-11-30T19:07:07.619Z,96678.70
2023-11-30T19:09:35.385Z,96681.67
2023-11-30T19:12:03.453Z,96673.69
2023-11-30T19:14:36.327Z,96675.37
2023-11-30T19:17:04.386Z,96668.44
2023-11-30T19:19:32.362Z,96671.36
2023-11-30T19:22:00.315Z,96666.76
2023-11-30T19:24:28.391Z,96663.50
2023-11-30T19:26:56.675Z,96658.62
2023-11-30T19:29:24.589Z,96657.50
2023-11-30T19:31:52.440Z,96660.61
2023-11-30T19:34:20.857Z,96662.46
2023-11-30T19:36:48.705Z,96671.42
2023-11-30T19:39:16.430Z,96647.53
2023-11-30T19:41:48.528Z,96637.81
2023-11-30T19:44:18.277Z,96630.77
2023-11-30T19:46:48.804Z,96628.84
2023-11-30T19:49:18.499Z,96625.61
2023-11-30T19:51:46.923Z,96616.28
2023-11-30T19:54:14.749Z,96605.89
2023-11-30T19:56:42.559Z,96616.91
2023-11-30T19:59:10.694Z,96617.26
2023-11-30T20:01:38.530Z,96610.30
2023-11-30T20:04:06.440Z,96611.20
2023-11-30T20:06:34.437Z,96613.67
2023-11-30T20:09:02.243Z,96608.67
2023-11-30T20:11:30.572Z,96607.09
2023-11-30T20:14:01.419Z,96607.69
2023-11-30T20:16:29.411Z,96607.20
2023-11-30T20:18:57.327Z,96600.27
2023-11-30T20:21:26.978Z,96606.21
2023-11-30T20:23:55.264Z,96596.10
2023-11-30T20:26:23.695Z,96592.95
2023-11-30T20:28:52.512Z,96582.83
2023-11-30T20:31:20.786Z,96580.47
2023-11-30T20:33:50.486Z,96572.44
2023-11-30T20:36:19.261Z,96568.70
2023-11-30T20:38:47.967Z,96569.22
2023-11-30T20:41:17.368Z,96568.95
2023-11-30T20:43:45.294Z,96566.27
2023-11-30T20:46:14.057Z,96562.26
2023-11-30T20:48:41.834Z,96564.11
2023-11-30T20:51:09.796Z,96561.67
2023-11-30T20:53:37.778Z,96561.56
2023-11-30T20:56:07.109Z,96558.80
2023-11-30T20:58:35.472Z,96559.44
2023-11-30T21:01:03.392Z,96558.73
2023-11-30T21:03:31.745Z,96554.23
2023-11-30T21:06:01.294Z,96559.36
2023-11-30T21:08:31.346Z,96545.25
2023-11-30T21:11:03.151Z,96531.22
2023-11-30T21:13:32.622Z,96523.84
2023-11-30T21:16:00.578Z,96517.22
2023-11-30T21:18:28.769Z,96509.87
2023-11-30T21:20:56.772Z,96513.80
2023-11-30T21:23:24.630Z,96520.22
2023-11-30T21:25:53.457Z,96505.95
2023-11-30T21:28:21.271Z,96510.84
2023-11-30T21:30:49.302Z,96496.94
2023-11-30T21:33:17.304Z,96503.72
2023-11-30T21:35:45.175Z,96491.22
2023-11-30T21:38:13.067Z,96492.09
2023-11-30T21:40:40.891Z,96498.59
2023-11-30T21:43:08.585Z,96482.11
2023-11-30T21:45:36.526Z,96488.30
2023-11-30T21:48:04.795Z,96482.28
2023-11-30T21:50:32.704Z,96483.98
2023-11-30T21:53:00.563Z,96471.98
2023-11-30T21:55:28.378Z,96478.20
2023-11-30T21:57:56.399Z,96477.70
2023-11-30T22:00:24.400Z,96480.14
2023-11-30T22:02:52.359Z,96479.67
2023-11-30T22:05:26.965Z,96478.33
2023-11-30T22:07:49.739Z,96476.02
2023-11-30T22:10:19.080Z,96472.05
2023-11-30T22:12:46.988Z,96475.04
2023-11-30T22:15:14.858Z,96462.25
2023-11-30T22:17:42.652Z,96466.74
2023-11-30T22:20:11.972Z,96461.89
2023-11-30T22:22:39.918Z,96453.50
2023-11-30T22:25:08.930Z,96446.92
2023-11-30T22:27:36.786Z,96441.46
2023-11-30T22:30:06.152Z,96440.46
2023-11-30T22:32:35.040Z,96429.28
2023-11-30T22:35:03.091Z,96422.40
2023-11-30T22:37:30.794Z,96424.56
2023-11-30T22:39:58.654Z,96408.77
2023-11-30T22:42:27.726Z,96402.66
2023-11-30T22:44:56.247Z,96397.64
2023-11-30T22:47:25.074Z,96395.44
2023-11-30T22:49:52.815Z,96395.44
2023-11-30T22:52:22.087Z,96393.08
2023-11-30T22:54:50.042Z,96388.03
2023-11-30T22:57:17.927Z,96376.82
2023-11-30T22:59:45.687Z,96372.89
2023-11-30T23:02:13.764Z,96361.50
2023-11-30T23:04:42.127Z,96369.08
2023-11-30T23:07:10.145Z,96362.75
2023-11-30T23:09:39.677Z,96358.62
2023-11-30T23:12:08.661Z,96359.22
2023-11-30T23:14:36.341Z,96359.08
2023-11-30T23:17:04.260Z,96351.10
2023-11-30T23:19:32.488Z,96350.92
2023-11-30T23:22:00.648Z,96349.64
2023-11-30T23:24:31.867Z,96332.00
2023-11-30T23:26:58.916Z,96339.80
2023-11-30T23:29:26.801Z,96331.03
2023-11-30T23:31:54.697Z,96326.00
2023-11-30T23:34:22.469Z,96319.59
2023-11-30T23:36:50.441Z,96317.73
2023-11-30T23:39:18.425Z,96321.43
2023-11-30T23:41:46.439Z,96332.09
2023-11-30T23:44:14.251Z,96328.16
2023-11-30T23:46:42.206Z,96315.41
2023-11-30T23:49:10.206Z,96324.90
2023-11-30T23:51:38.109Z,96316.72
2023-11-30T23:54:05.992Z,96326.44
2023-11-30T23:56:33.796Z,96327.63
2023-11-30T23:59:01.581Z,96337.52
